Aeroporto :
LOGIN :

Iscrizione | Disclaimer

   EN    FR    IT 

 










Sommario :    VFR   VFR Marginale   IFR   IFR Intensivo   IFR Molto Intensivo
Visibilità : 
Base nubi : 
>= 8 km
>= 3000ft
5 / 8 km
1000 / 3000 ft
1500m / 5 km
500 / 1000 ft
800 / 1500m
200 / 500 ft
< 800m
< 200 ft
Simboli :   Temporali  Nebbia  Neve Forte  Precipitazioni Forti  Vento > 20 kt
SIGMETs :   Varie  Temporali  Ghiacco  Turbolenza  Onda orograficha  Ceneri Vulcaniche






- Altitudine del aeroporto : 17 ft
- Codice IATA : GRQ


EHGG - Groningen Eelde

ULTIMO METAR :
  • 180855Z AUTO 23009KT 190V270 7000 -SHRA FEW007 SCT008 BKN015 04/03 Q1019 TEMPO SCT018CB BECMG 9999

METARs OBSOLETI :
  • 180825Z AUTO 21011KT 9999 FEW008 BKN034 BKN039 04/03 Q1019 TEMPO 6000 -SHRA SCT018CB
  • 180755Z AUTO 21011KT 9999 FEW009 SCT011 03/02 Q1019 TEMPO 6000 -SHRA SCT018CB
  • 180725Z AUTO 21010KT 9999 NCD 03/02 Q1018 NOSIG
  • 180655Z AUTO 21011KT 9999 FEW011 03/02 Q1018 NOSIG
  • 180625Z AUTO 21012KT 9999 BKN018 BKN022 04/02 Q1018 NOSIG

TAF TAF EHGG
Valido dal 18 a 06 ore il 19 a 12 ore UTC


180514Z 1806/1912 23011KT 9999 BKN020
BECMG 1809/1812 28012KT
PROB40
TEMPO 1809/1904 28014G24KT 4000 SHRA SHRAGS BKN012 SCT018CB
BECMG 1900/1903 32010KT
PROB30
TEMPO 1904/1912 7000 -SHRA FEW020CB
BECMG 1909/1912 35012KT



MetMap, La meteo Aeronautica in un colpo d'occhio ! - Copyright ORBIFLY Dicembre 2007 - Disclaimer

ORBIFLY MET'MAP TEAM :

Programmazione e sviluppo : Alexandra Zaïnal
Concezione : Baudouin d'Aumeries
Aiuto per la programmazione : Marc-Olivier Méhu
Supporto tecnico e logistico : Manuel Goepfert
Aiuto per la traduzione : Arnaldo La Scala

Contatto : metmap@orbifly.com




FONTI E CREDITI :

   NOAA